sensor_id;sensor_type;location;lat;lon;timestamp;temperature;humidity
28530;DHT22;15737;49.760;6.632;2024-02-21T00:01:03;7.90;99.90
28530;DHT22;15737;49.760;6.632;2024-02-21T00:03:29;7.90;99.90
28530;DHT22;15737;49.760;6.632;2024-02-21T00:05:55;7.90;99.90
28530;DHT22;15737;49.760;6.632;2024-02-21T00:08:20;7.90;99.90
28530;DHT22;15737;49.760;6.632;2024-02-21T00:10:47;7.90;99.90
28530;DHT22;15737;49.760;6.632;2024-02-21T00:15:53;7.90;99.90
28530;DHT22;15737;49.760;6.632;2024-02-21T00:18:19;7.90;99.90
28530;DHT22;15737;49.760;6.632;2024-02-21T00:20:44;7.90;99.90
28530;DHT22;15737;49.760;6.632;2024-02-21T00:23:10;7.80;99.90
28530;DHT22;15737;49.760;6.632;2024-02-21T00:25:35;7.80;99.90
28530;DHT22;15737;49.760;6.632;2024-02-21T00:28:01;7.70;99.90
28530;DHT22;15737;49.760;6.632;2024-02-21T00:30:27;7.70;99.90
28530;DHT22;15737;49.760;6.632;2024-02-21T00:32:52;7.70;99.90
28530;DHT22;15737;49.760;6.632;2024-02-21T00:35:18;7.70;99.90
28530;DHT22;15737;49.760;6.632;2024-02-21T00:37:44;7.70;99.90
28530;DHT22;15737;49.760;6.632;2024-02-21T00:40:18;7.70;99.90
28530;DHT22;15737;49.760;6.632;2024-02-21T00:42:46;7.70;99.90
28530;DHT22;15737;49.760;6.632;2024-02-21T00:45:12;7.80;99.90
28530;DHT22;15737;49.760;6.632;2024-02-21T00:47:37;7.80;99.90
28530;DHT22;15737;49.760;6.632;2024-02-21T00:50:03;7.80;99.90
28530;DHT22;15737;49.760;6.632;2024-02-21T00:52:29;7.80;99.90
28530;DHT22;15737;49.760;6.632;2024-02-21T00:54:54;7.70;99.90
28530;DHT22;15737;49.760;6.632;2024-02-21T00:57:20;7.70;99.90
28530;DHT22;15737;49.760;6.632;2024-02-21T00:59:45;7.70;99.90
28530;DHT22;15737;49.760;6.632;2024-02-21T01:02:11;7.70;99.90
28530;DHT22;15737;49.760;6.632;2024-02-21T01:04:36;7.70;99.90
28530;DHT22;15737;49.760;6.632;2024-02-21T01:07:11;7.60;99.90
28530;DHT22;15737;49.760;6.632;2024-02-21T01:09:37;7.60;99.90
28530;DHT22;15737;49.760;6.632;2024-02-21T01:12:02;7.60;99.90
28530;DHT22;15737;49.760;6.632;2024-02-21T01:14:28;7.60;99.90
28530;DHT22;15737;49.760;6.632;2024-02-21T01:16:53;7.60;99.90
28530;DHT22;15737;49.760;6.632;2024-02-21T01:19:19;7.50;99.90
28530;DHT22;15737;49.760;6.632;2024-02-21T01:21:44;7.50;99.90
28530;DHT22;15737;49.760;6.632;2024-02-21T01:24:10;7.50;99.90
28530;DHT22;15737;49.760;6.632;2024-02-21T01:26:35;7.50;99.90
28530;DHT22;15737;49.760;6.632;2024-02-21T01:29:01;7.60;99.90
28530;DHT22;15737;49.760;6.632;2024-02-21T01:31:26;7.60;99.90
28530;DHT22;15737;49.760;6.632;2024-02-21T01:34:13;7.60;99.90
28530;DHT22;15737;49.760;6.632;2024-02-21T01:36:39;7.60;99.90
28530;DHT22;15737;49.760;6.632;2024-02-21T01:41:35;7.60;99.90
28530;DHT22;15737;49.760;6.632;2024-02-21T01:44:00;7.60;99.90
28530;DHT22;15737;49.760;6.632;2024-02-21T01:46:26;7.60;99.90
28530;DHT22;15737;49.760;6.632;2024-02-21T01:51:28;7.60;99.90
28530;DHT22;15737;49.760;6.632;2024-02-21T01:53:55;7.60;99.90
28530;DHT22;15737;49.760;6.632;2024-02-21T01:56:22;7.60;99.90
28530;DHT22;15737;49.760;6.632;2024-02-21T01:58:48;7.60;99.90
28530;DHT22;15737;49.760;6.632;2024-02-21T02:01:14;7.60;99.90
28530;DHT22;15737;49.760;6.632;2024-02-21T02:03:40;7.60;99.90
28530;DHT22;15737;49.760;6.632;2024-02-21T02:06:06;7.60;99.90
28530;DHT22;15737;49.760;6.632;2024-02-21T02:08:34;7.60;99.90
28530;DHT22;15737;49.760;6.632;2024-02-21T02:11:00;7.60;99.90
28530;DHT22;15737;49.760;6.632;2024-02-21T02:13:26;7.50;99.90
28530;DHT22;15737;49.760;6.632;2024-02-21T02:15:59;7.50;99.90
28530;DHT22;15737;49.760;6.632;2024-02-21T02:18:25;7.40;99.90
28530;DHT22;15737;49.760;6.632;2024-02-21T02:20:50;7.40;99.90
28530;DHT22;15737;49.760;6.632;2024-02-21T02:23:32;7.40;99.90
28530;DHT22;15737;49.760;6.632;2024-02-21T02:25:58;7.40;99.90
28530;DHT22;15737;49.760;6.632;2024-02-21T02:28:24;7.40;99.90
28530;DHT22;15737;49.760;6.632;2024-02-21T02:30:54;7.40;99.90
28530;DHT22;15737;49.760;6.632;2024-02-21T02:33:20;7.40;99.90
28530;DHT22;15737;49.760;6.632;2024-02-21T02:35:45;7.40;99.90
28530;DHT22;15737;49.760;6.632;2024-02-21T02:38:11;7.40;99.90
28530;DHT22;15737;49.760;6.632;2024-02-21T02:40:40;7.50;99.90
28530;DHT22;15737;49.760;6.632;2024-02-21T02:43:06;7.50;99.90
28530;DHT22;15737;49.760;6.632;2024-02-21T02:45:32;7.50;99.90
28530;DHT22;15737;49.760;6.632;2024-02-21T02:47:59;7.40;99.90
28530;DHT22;15737;49.760;6.632;2024-02-21T02:50:25;7.40;99.90
28530;DHT22;15737;49.760;6.632;2024-02-21T02:52:51;7.40;99.90
28530;DHT22;15737;49.760;6.632;2024-02-21T02:55:17;7.40;99.90
28530;DHT22;15737;49.760;6.632;2024-02-21T02:57:48;7.40;99.90
28530;DHT22;15737;49.760;6.632;2024-02-21T03:00:14;7.40;99.90
28530;DHT22;15737;49.760;6.632;2024-02-21T03:02:42;7.50;99.90
28530;DHT22;15737;49.760;6.632;2024-02-21T03:05:20;7.50;99.90
28530;DHT22;15737;49.760;6.632;2024-02-21T03:07:47;7.50;99.90
28530;DHT22;15737;49.760;6.632;2024-02-21T03:10:13;7.50;99.90
28530;DHT22;15737;49.760;6.632;2024-02-21T03:12:44;7.50;99.90
28530;DHT22;15737;49.760;6.632;2024-02-21T03:15:10;7.50;99.90
28530;DHT22;15737;49.760;6.632;2024-02-21T03:17:35;7.50;99.90
28530;DHT22;15737;49.760;6.632;2024-02-21T03:20:05;7.50;99.90
28530;DHT22;15737;49.760;6.632;2024-02-21T03:22:31;7.50;99.90
28530;DHT22;15737;49.760;6.632;2024-02-21T03:24:58;7.50;99.90
28530;DHT22;15737;49.760;6.632;2024-02-21T03:27:23;7.50;99.90
28530;DHT22;15737;49.760;6.632;2024-02-21T03:29:48;7.50;99.90
28530;DHT22;15737;49.760;6.632;2024-02-21T03:32:14;7.40;99.90
28530;DHT22;15737;49.760;6.632;2024-02-21T03:34:39;7.40;99.90
28530;DHT22;15737;49.760;6.632;2024-02-21T03:37:05;7.40;99.90
28530;DHT22;15737;49.760;6.632;2024-02-21T03:39:40;7.40;99.90
28530;DHT22;15737;49.760;6.632;2024-02-21T03:42:06;7.40;99.90
28530;DHT22;15737;49.760;6.632;2024-02-21T03:44:31;7.40;99.90
28530;DHT22;15737;49.760;6.632;2024-02-21T03:46:59;7.40;99.90
28530;DHT22;15737;49.760;6.632;2024-02-21T03:49:25;7.40;99.90
28530;DHT22;15737;49.760;6.632;2024-02-21T03:51:50;7.40;99.90
28530;DHT22;15737;49.760;6.632;2024-02-21T03:54:16;7.40;99.90
28530;DHT22;15737;49.760;6.632;2024-02-21T03:56:41;7.40;99.90
28530;DHT22;15737;49.760;6.632;2024-02-21T03:59:07;7.40;99.90
28530;DHT22;15737;49.760;6.632;2024-02-21T04:01:34;7.40;99.90
28530;DHT22;15737;49.760;6.632;2024-02-21T04:03:59;7.40;99.90
28530;DHT22;15737;49.760;6.632;2024-02-21T04:06:34;7.40;99.90
28530;DHT22;15737;49.760;6.632;2024-02-21T04:08:59;7.30;99.90
28530;DHT22;15737;49.760;6.632;2024-02-21T04:11:25;7.30;99.90
28530;DHT22;15737;49.760;6.632;2024-02-21T04:13:50;7.30;99.90
28530;DHT22;15737;49.760;6.632;2024-02-21T04:16:17;7.20;99.90
28530;DHT22;15737;49.760;6.632;2024-02-21T04:18:43;7.20;99.90
28530;DHT22;15737;49.760;6.632;2024-02-21T04:21:09;7.20;99.90
28530;DHT22;15737;49.760;6.632;2024-02-21T04:23:35;7.20;99.90
28530;DHT22;15737;49.760;6.632;2024-02-21T04:26:00;7.20;99.90
28530;DHT22;15737;49.760;6.632;2024-02-21T04:28:26;7.20;99.90
28530;DHT22;15737;49.760;6.632;2024-02-21T04:30:52;7.20;99.90
28530;DHT22;15737;49.760;6.632;2024-02-21T04:33:27;7.20;99.90
28530;DHT22;15737;49.760;6.632;2024-02-21T04:35:53;7.10;99.90
28530;DHT22;15737;49.760;6.632;2024-02-21T04:38:20;7.10;99.90
28530;DHT22;15737;49.760;6.632;2024-02-21T04:40:45;7.10;99.90
28530;DHT22;15737;49.760;6.632;2024-02-21T04:43:11;7.00;99.90
28530;DHT22;15737;49.760;6.632;2024-02-21T04:45:36;7.10;99.90
28530;DHT22;15737;49.760;6.632;2024-02-21T04:48:02;7.10;99.90
28530;DHT22;15737;49.760;6.632;2024-02-21T04:50:28;7.10;99.90
28530;DHT22;15737;49.760;6.632;2024-02-21T04:52:53;7.20;99.90
28530;DHT22;15737;49.760;6.632;2024-02-21T04:55:19;7.20;99.90
28530;DHT22;15737;49.760;6.632;2024-02-21T04:57:44;7.20;99.90
28530;DHT22;15737;49.760;6.632;2024-02-21T05:02:50;7.20;99.90
28530;DHT22;15737;49.760;6.632;2024-02-21T05:05:16;7.20;99.90
28530;DHT22;15737;49.760;6.632;2024-02-21T05:07:42;7.20;99.90
28530;DHT22;15737;49.760;6.632;2024-02-21T05:10:08;7.20;99.90
28530;DHT22;15737;49.760;6.632;2024-02-21T05:12:34;7.20;99.90
28530;DHT22;15737;49.760;6.632;2024-02-21T05:14:59;7.20;99.90
28530;DHT22;15737;49.760;6.632;2024-02-21T05:17:25;7.20;99.90
28530;DHT22;15737;49.760;6.632;2024-02-21T05:19:50;7.20;99.90
28530;DHT22;15737;49.760;6.632;2024-02-21T05:22:16;7.20;99.90
28530;DHT22;15737;49.760;6.632;2024-02-21T05:24:41;7.20;99.90
28530;DHT22;15737;49.760;6.632;2024-02-21T05:27:16;7.20;99.90
28530;DHT22;15737;49.760;6.632;2024-02-21T05:29:41;7.20;99.90
28530;DHT22;15737;49.760;6.632;2024-02-21T05:32:07;7.20;99.90
28530;DHT22;15737;49.760;6.632;2024-02-21T05:34:33;7.20;99.90
28530;DHT22;15737;49.760;6.632;2024-02-21T05:36:58;7.20;99.90
28530;DHT22;15737;49.760;6.632;2024-02-21T05:39:25;7.20;99.90
28530;DHT22;15737;49.760;6.632;2024-02-21T05:41:51;7.20;99.90
28530;DHT22;15737;49.760;6.632;2024-02-21T05:44:16;7.10;99.90
28530;DHT22;15737;49.760;6.632;2024-02-21T05:46:42;7.10;99.90
28530;DHT22;15737;49.760;6.632;2024-02-21T05:49:08;7.10;99.90
28530;DHT22;15737;49.760;6.632;2024-02-21T05:51:34;7.10;99.90
28530;DHT22;15737;49.760;6.632;2024-02-21T05:54:11;7.20;99.90
28530;DHT22;15737;49.760;6.632;2024-02-21T05:56:36;7.10;99.90
28530;DHT22;15737;49.760;6.632;2024-02-21T05:59:02;7.10;99.90
28530;DHT22;15737;49.760;6.632;2024-02-21T06:01:27;7.10;99.90
28530;DHT22;15737;49.760;6.632;2024-02-21T06:03:53;7.20;99.90
28530;DHT22;15737;49.760;6.632;2024-02-21T06:06:18;7.20;99.90
28530;DHT22;15737;49.760;6.632;2024-02-21T06:08:44;7.10;99.90
28530;DHT22;15737;49.760;6.632;2024-02-21T06:11:09;7.10;99.90
28530;DHT22;15737;49.760;6.632;2024-02-21T06:13:38;7.10;99.90
28530;DHT22;15737;49.760;6.632;2024-02-21T06:16:05;7.10;99.90
28530;DHT22;15737;49.760;6.632;2024-02-21T06:18:31;7.10;99.90
28530;DHT22;15737;49.760;6.632;2024-02-21T06:21:06;7.10;99.90
28530;DHT22;15737;49.760;6.632;2024-02-21T06:23:31;7.10;99.90
28530;DHT22;15737;49.760;6.632;2024-02-21T06:25:57;7.10;99.90
28530;DHT22;15737;49.760;6.632;2024-02-21T06:28:22;7.10;99.90
28530;DHT22;15737;49.760;6.632;2024-02-21T06:30:48;7.10;99.90
28530;DHT22;15737;49.760;6.632;2024-02-21T06:33:13;7.10;99.90
28530;DHT22;15737;49.760;6.632;2024-02-21T06:35:39;7.10;99.90
28530;DHT22;15737;49.760;6.632;2024-02-21T06:38:06;7.10;99.90
28530;DHT22;15737;49.760;6.632;2024-02-21T06:40:33;7.10;99.90
28530;DHT22;15737;49.760;6.632;2024-02-21T06:43:03;7.10;99.90
28530;DHT22;15737;49.760;6.632;2024-02-21T06:45:29;7.10;99.90
28530;DHT22;15737;49.760;6.632;2024-02-21T06:47:58;7.10;99.90
28530;DHT22;15737;49.760;6.632;2024-02-21T06:50:23;7.10;99.90
28530;DHT22;15737;49.760;6.632;2024-02-21T06:52:49;7.10;99.90
28530;DHT22;15737;49.760;6.632;2024-02-21T06:55:18;7.10;99.90
28530;DHT22;15737;49.760;6.632;2024-02-21T06:57:44;7.10;99.90
28530;DHT22;15737;49.760;6.632;2024-02-21T07:00:10;7.10;99.90
28530;DHT22;15737;49.760;6.632;2024-02-21T07:02:36;7.10;99.90
28530;DHT22;15737;49.760;6.632;2024-02-21T07:05:01;7.10;99.90
28530;DHT22;15737;49.760;6.632;2024-02-21T07:07:27;7.10;99.90
28530;DHT22;15737;49.760;6.632;2024-02-21T07:09:52;7.20;99.90
28530;DHT22;15737;49.760;6.632;2024-02-21T07:12:20;7.20;99.90
28530;DHT22;15737;49.760;6.632;2024-02-21T07:17:22;7.20;99.90
28530;DHT22;15737;49.760;6.632;2024-02-21T07:19:48;7.20;99.90
28530;DHT22;15737;49.760;6.632;2024-02-21T07:22:17;7.30;99.90
28530;DHT22;15737;49.760;6.632;2024-02-21T07:24:43;7.30;99.90
28530;DHT22;15737;49.760;6.632;2024-02-21T07:27:08;7.20;99.90
28530;DHT22;15737;49.760;6.632;2024-02-21T07:29:34;7.20;99.90
28530;DHT22;15737;49.760;6.632;2024-02-21T07:31:59;7.30;99.90
28530;DHT22;15737;49.760;6.632;2024-02-21T07:34:25;7.30;99.90
28530;DHT22;15737;49.760;6.632;2024-02-21T07:36:50;7.30;99.90
28530;DHT22;15737;49.760;6.632;2024-02-21T07:39:16;7.40;99.90
28530;DHT22;15737;49.760;6.632;2024-02-21T07:41:47;7.50;99.90
28530;DHT22;15737;49.760;6.632;2024-02-21T07:44:13;7.50;99.90
28530;DHT22;15737;49.760;6.632;2024-02-21T07:46:38;7.50;99.90
28530;DHT22;15737;49.760;6.632;2024-02-21T07:49:04;7.50;99.90
28530;DHT22;15737;49.760;6.632;2024-02-21T07:51:29;7.50;99.90
28530;DHT22;15737;49.760;6.632;2024-02-21T07:53:55;7.40;99.90
28530;DHT22;15737;49.760;6.632;2024-02-21T07:56:21;7.50;99.90
28530;DHT22;15737;49.760;6.632;2024-02-21T07:59:13;7.50;99.90
28530;DHT22;15737;49.760;6.632;2024-02-21T08:01:39;7.60;99.90
28530;DHT22;15737;49.760;6.632;2024-02-21T08:04:05;7.60;99.90
28530;DHT22;15737;49.760;6.632;2024-02-21T08:06:31;7.60;99.90
28530;DHT22;15737;49.760;6.632;2024-02-21T08:08:56;7.70;99.90
28530;DHT22;15737;49.760;6.632;2024-02-21T08:11:22;7.70;99.90
28530;DHT22;15737;49.760;6.632;2024-02-21T08:13:48;7.70;99.90
28530;DHT22;15737;49.760;6.632;2024-02-21T08:16:13;7.90;99.90
28530;DHT22;15737;49.760;6.632;2024-02-21T08:18:39;8.00;99.90
28530;DHT22;15737;49.760;6.632;2024-02-21T08:21:04;8.20;99.90
28530;DHT22;15737;49.760;6.632;2024-02-21T08:23:30;8.40;99.90
28530;DHT22;15737;49.760;6.632;2024-02-21T08:25:55;8.50;99.90
28530;DHT22;15737;49.760;6.632;2024-02-21T08:28:21;8.50;99.90
28530;DHT22;15737;49.760;6.632;2024-02-21T08:30:47;8.50;99.90
28530;DHT22;15737;49.760;6.632;2024-02-21T08:33:15;8.60;99.90
28530;DHT22;15737;49.760;6.632;2024-02-21T08:35:42;9.10;99.90
28530;DHT22;15737;49.760;6.632;2024-02-21T08:38:10;9.20;99.90
28530;DHT22;15737;49.760;6.632;2024-02-21T08:40:36;9.00;99.90
28530;DHT22;15737;49.760;6.632;2024-02-21T08:43:02;8.90;99.90
28530;DHT22;15737;49.760;6.632;2024-02-21T08:45:28;8.90;99.90
28530;DHT22;15737;49.760;6.632;2024-02-21T08:47:54;8.80;99.90
28530;DHT22;15737;49.760;6.632;2024-02-21T08:50:19;8.70;99.90
28530;DHT22;15737;49.760;6.632;2024-02-21T08:52:45;8.60;99.90
28530;DHT22;15737;49.760;6.632;2024-02-21T08:55:10;8.50;99.90
28530;DHT22;15737;49.760;6.632;2024-02-21T08:57:36;8.50;99.90
28530;DHT22;15737;49.760;6.632;2024-02-21T09:00:06;8.60;99.90
28530;DHT22;15737;49.760;6.632;2024-02-21T09:02:40;8.70;99.90
28530;DHT22;15737;49.760;6.632;2024-02-21T09:05:06;8.90;99.90
28530;DHT22;15737;49.760;6.632;2024-02-21T09:07:32;8.90;99.90
28530;DHT22;15737;49.760;6.632;2024-02-21T09:09:57;8.90;99.90
28530;DHT22;15737;49.760;6.632;2024-02-21T09:12:23;8.80;99.90
28530;DHT22;15737;49.760;6.632;2024-02-21T09:14:48;8.80;99.90
28530;DHT22;15737;49.760;6.632;2024-02-21T09:17:16;9.00;99.90
28530;DHT22;15737;49.760;6.632;2024-02-21T09:19:56;9.20;99.90
28530;DHT22;15737;49.760;6.632;2024-02-21T09:22:24;9.20;99.90
28530;DHT22;15737;49.760;6.632;2024-02-21T09:24:49;9.30;99.90
28530;DHT22;15737;49.760;6.632;2024-02-21T09:27:15;9.50;99.90
28530;DHT22;15737;49.760;6.632;2024-02-21T09:29:40;9.50;99.90
28530;DHT22;15737;49.760;6.632;2024-02-21T09:32:06;9.50;99.90
28530;DHT22;15737;49.760;6.632;2024-02-21T09:34:32;9.60;99.90
28530;DHT22;15737;49.760;6.632;2024-02-21T09:36:57;9.50;99.90
28530;DHT22;15737;49.760;6.632;2024-02-21T09:39:23;9.50;99.90
28530;DHT22;15737;49.760;6.632;2024-02-21T09:41:53;9.60;99.90
28530;DHT22;15737;49.760;6.632;2024-02-21T09:44:21;9.70;99.90
28530;DHT22;15737;49.760;6.632;2024-02-21T09:47:11;9.70;99.90
28530;DHT22;15737;49.760;6.632;2024-02-21T09:49:40;9.60;99.90
28530;DHT22;15737;49.760;6.632;2024-02-21T09:52:07;9.60;99.90
28530;DHT22;15737;49.760;6.632;2024-02-21T09:54:34;9.50;99.90
28530;DHT22;15737;49.760;6.632;2024-02-21T09:57:01;9.60;99.90
28530;DHT22;15737;49.760;6.632;2024-02-21T09:59:32;9.60;99.90
28530;DHT22;15737;49.760;6.632;2024-02-21T10:01:57;9.60;99.90
28530;DHT22;15737;49.760;6.632;2024-02-21T10:04:25;9.70;99.90
28530;DHT22;15737;49.760;6.632;2024-02-21T10:06:51;9.80;99.90
28530;DHT22;15737;49.760;6.632;2024-02-21T10:09:27;9.70;99.90
28530;DHT22;15737;49.760;6.632;2024-02-21T10:11:54;9.60;99.90
28530;DHT22;15737;49.760;6.632;2024-02-21T10:14:20;9.50;99.90
28530;DHT22;15737;49.760;6.632;2024-02-21T10:16:48;9.60;99.90
28530;DHT22;15737;49.760;6.632;2024-02-21T10:19:20;9.60;99.90
28530;DHT22;15737;49.760;6.632;2024-02-21T10:22:08;9.60;99.90
28530;DHT22;15737;49.760;6.632;2024-02-21T10:24:34;9.60;99.90
28530;DHT22;15737;49.760;6.632;2024-02-21T10:27:05;9.80;99.90
28530;DHT22;15737;49.760;6.632;2024-02-21T10:29:37;9.90;99.90
28530;DHT22;15737;49.760;6.632;2024-02-21T10:32:06;9.80;99.90
28530;DHT22;15737;49.760;6.632;2024-02-21T10:34:32;9.70;99.90
28530;DHT22;15737;49.760;6.632;2024-02-21T10:37:08;9.70;99.90
28530;DHT22;15737;49.760;6.632;2024-02-21T10:39:37;9.70;99.90
28530;DHT22;15737;49.760;6.632;2024-02-21T10:42:03;9.50;99.90
28530;DHT22;15737;49.760;6.632;2024-02-21T10:44:30;9.50;99.90
28530;DHT22;15737;49.760;6.632;2024-02-21T10:46:57;9.60;99.90
28530;DHT22;15737;49.760;6.632;2024-02-21T10:49:24;9.60;99.90
28530;DHT22;15737;49.760;6.632;2024-02-21T10:51:54;9.70;99.90
28530;DHT22;15737;49.760;6.632;2024-02-21T10:56:53;9.90;99.90
28530;DHT22;15737;49.760;6.632;2024-02-21T10:59:20;10.10;99.90
28530;DHT22;15737;49.760;6.632;2024-02-21T11:01:47;10.20;99.90
28530;DHT22;15737;49.760;6.632;2024-02-21T11:04:13;10.20;99.90
28530;DHT22;15737;49.760;6.632;2024-02-21T11:06:40;10.40;99.90
28530;DHT22;15737;49.760;6.632;2024-02-21T11:09:10;10.50;99.90
28530;DHT22;15737;49.760;6.632;2024-02-21T11:11:38;10.40;99.90
28530;DHT22;15737;49.760;6.632;2024-02-21T11:14:09;10.40;99.90
28530;DHT22;15737;49.760;6.632;2024-02-21T11:16:39;10.20;99.90
28530;DHT22;15737;49.760;6.632;2024-02-21T11:19:10;10.20;99.90
28530;DHT22;15737;49.760;6.632;2024-02-21T11:21:44;10.40;99.90
28530;DHT22;15737;49.760;6.632;2024-02-21T11:24:09;10.40;99.90
28530;DHT22;15737;49.760;6.632;2024-02-21T11:26:37;10.40;99.90
28530;DHT22;15737;49.760;6.632;2024-02-21T11:29:03;10.30;99.90
28530;DHT22;15737;49.760;6.632;2024-02-21T11:31:40;10.30;99.90
28530;DHT22;15737;49.760;6.632;2024-02-21T11:34:18;10.20;99.90
28530;DHT22;15737;49.760;6.632;2024-02-21T11:39:24;10.00;99.90
28530;DHT22;15737;49.760;6.632;2024-02-21T11:42:07;10.10;99.90
28530;DHT22;15737;49.760;6.632;2024-02-21T11:44:35;10.40;99.90
28530;DHT22;15737;49.760;6.632;2024-02-21T11:47:03;10.40;99.90
28530;DHT22;15737;49.760;6.632;2024-02-21T11:49:29;10.20;99.90
28530;DHT22;15737;49.760;6.632;2024-02-21T11:52:02;10.10;99.90
28530;DHT22;15737;49.760;6.632;2024-02-21T11:54:31;10.10;99.90
28530;DHT22;15737;49.760;6.632;2024-02-21T11:56:57;10.10;99.90
28530;DHT22;15737;49.760;6.632;2024-02-21T11:59:22;10.10;99.90
28530;DHT22;15737;49.760;6.632;2024-02-21T12:01:48;10.00;99.90
28530;DHT22;15737;49.760;6.632;2024-02-21T12:04:15;9.90;99.90
28530;DHT22;15737;49.760;6.632;2024-02-21T12:06:43;9.80;99.90
28530;DHT22;15737;49.760;6.632;2024-02-21T12:09:09;9.80;99.90
28530;DHT22;15737;49.760;6.632;2024-02-21T12:11:35;9.90;99.90
28530;DHT22;15737;49.760;6.632;2024-02-21T12:14:04;9.90;99.90
28530;DHT22;15737;49.760;6.632;2024-02-21T12:16:33;10.00;99.90
28530;DHT22;15737;49.760;6.632;2024-02-21T12:19:00;10.00;99.90
28530;DHT22;15737;49.760;6.632;2024-02-21T12:21:26;10.10;99.90
28530;DHT22;15737;49.760;6.632;2024-02-21T12:23:55;10.20;99.90
28530;DHT22;15737;49.760;6.632;2024-02-21T12:26:21;10.10;99.90
28530;DHT22;15737;49.760;6.632;2024-02-21T12:28:46;10.10;99.90
28530;DHT22;15737;49.760;6.632;2024-02-21T12:31:12;10.20;99.90
28530;DHT22;15737;49.760;6.632;2024-02-21T12:33:38;10.40;99.90
28530;DHT22;15737;49.760;6.632;2024-02-21T12:36:03;10.60;99.90
28530;DHT22;15737;49.760;6.632;2024-02-21T12:38:29;10.50;99.90
28530;DHT22;15737;49.760;6.632;2024-02-21T12:40:55;10.40;99.90
28530;DHT22;15737;49.760;6.632;2024-02-21T12:43:22;10.30;99.90
28530;DHT22;15737;49.760;6.632;2024-02-21T12:45:48;10.20;99.90
28530;DHT22;15737;49.760;6.632;2024-02-21T12:48:14;10.10;99.90
28530;DHT22;15737;49.760;6.632;2024-02-21T12:50:42;10.10;99.90
28530;DHT22;15737;49.760;6.632;2024-02-21T12:53:13;10.20;99.90
28530;DHT22;15737;49.760;6.632;2024-02-21T12:55:38;10.40;99.90
28530;DHT22;15737;49.760;6.632;2024-02-21T12:58:04;10.60;99.90
28530;DHT22;15737;49.760;6.632;2024-02-21T13:00:31;10.90;99.90
28530;DHT22;15737;49.760;6.632;2024-02-21T13:02:56;10.90;99.90
28530;DHT22;15737;49.760;6.632;2024-02-21T13:05:22;11.00;99.90
28530;DHT22;15737;49.760;6.632;2024-02-21T13:07:48;10.90;99.90
28530;DHT22;15737;49.760;6.632;2024-02-21T13:10:14;10.70;99.90
28530;DHT22;15737;49.760;6.632;2024-02-21T13:12:39;10.70;99.90
28530;DHT22;15737;49.760;6.632;2024-02-21T13:15:05;10.70;99.90
28530;DHT22;15737;49.760;6.632;2024-02-21T13:17:31;10.80;99.90
28530;DHT22;15737;49.760;6.632;2024-02-21T13:19:57;11.00;99.90
28530;DHT22;15737;49.760;6.632;2024-02-21T13:22:23;11.20;99.90
28530;DHT22;15737;49.760;6.632;2024-02-21T13:24:51;11.30;99.90
28530;DHT22;15737;49.760;6.632;2024-02-21T13:27:17;11.30;99.90
28530;DHT22;15737;49.760;6.632;2024-02-21T13:29:42;11.50;99.90
28530;DHT22;15737;49.760;6.632;2024-02-21T13:32:08;11.50;99.90
28530;DHT22;15737;49.760;6.632;2024-02-21T13:34:34;11.30;99.90
28530;DHT22;15737;49.760;6.632;2024-02-21T13:36:59;11.20;99.90
28530;DHT22;15737;49.760;6.632;2024-02-21T13:39:25;11.20;99.90
28530;DHT22;15737;49.760;6.632;2024-02-21T13:41:50;11.40;99.90
28530;DHT22;15737;49.760;6.632;2024-02-21T13:44:16;11.40;99.90
28530;DHT22;15737;49.760;6.632;2024-02-21T13:46:41;11.40;99.90
28530;DHT22;15737;49.760;6.632;2024-02-21T13:49:07;11.40;99.90
28530;DHT22;15737;49.760;6.632;2024-02-21T13:51:33;11.40;99.90
28530;DHT22;15737;49.760;6.632;2024-02-21T13:54:02;11.10;99.90
28530;DHT22;15737;49.760;6.632;2024-02-21T13:56:28;11.00;99.90
28530;DHT22;15737;49.760;6.632;2024-02-21T13:58:54;10.90;99.90
28530;DHT22;15737;49.760;6.632;2024-02-21T14:01:19;10.70;99.90
28530;DHT22;15737;49.760;6.632;2024-02-21T14:03:45;10.60;99.90
28530;DHT22;15737;49.760;6.632;2024-02-21T14:06:10;10.70;99.90
28530;DHT22;15737;49.760;6.632;2024-02-21T14:08:37;10.70;99.90
28530;DHT22;15737;49.760;6.632;2024-02-21T14:11:05;10.70;99.90
28530;DHT22;15737;49.760;6.632;2024-02-21T14:13:31;10.70;99.90
28530;DHT22;15737;49.760;6.632;2024-02-21T14:15:57;10.90;99.90
28530;DHT22;15737;49.760;6.632;2024-02-21T14:18:22;11.10;99.90
28530;DHT22;15737;49.760;6.632;2024-02-21T14:20:48;11.10;99.90
28530;DHT22;15737;49.760;6.632;2024-02-21T14:23:13;11.00;99.90
28530;DHT22;15737;49.760;6.632;2024-02-21T14:25:39;10.80;99.90
28530;DHT22;15737;49.760;6.632;2024-02-21T14:28:05;10.80;99.90
28530;DHT22;15737;49.760;6.632;2024-02-21T14:30:31;10.70;99.90
28530;DHT22;15737;49.760;6.632;2024-02-21T14:32:56;10.60;99.90
28530;DHT22;15737;49.760;6.632;2024-02-21T14:35:22;10.50;99.90
28530;DHT22;15737;49.760;6.632;2024-02-21T14:37:47;10.30;99.90
28530;DHT22;15737;49.760;6.632;2024-02-21T14:40:17;10.30;99.90
28530;DHT22;15737;49.760;6.632;2024-02-21T14:42:44;10.40;99.90
28530;DHT22;15737;49.760;6.632;2024-02-21T14:45:10;10.40;99.90
28530;DHT22;15737;49.760;6.632;2024-02-21T14:47:35;10.40;99.90
28530;DHT22;15737;49.760;6.632;2024-02-21T14:50:02;10.30;99.90
28530;DHT22;15737;49.760;6.632;2024-02-21T14:52:29;10.20;99.90
28530;DHT22;15737;49.760;6.632;2024-02-21T14:54:54;10.20;99.90
28530;DHT22;15737;49.760;6.632;2024-02-21T14:57:20;10.20;99.90
28530;DHT22;15737;49.760;6.632;2024-02-21T14:59:46;10.10;99.90
28530;DHT22;15737;49.760;6.632;2024-02-21T15:02:15;10.00;99.90
28530;DHT22;15737;49.760;6.632;2024-02-21T15:04:40;10.10;99.90
28530;DHT22;15737;49.760;6.632;2024-02-21T15:07:06;10.20;99.90
28530;DHT22;15737;49.760;6.632;2024-02-21T15:09:32;10.20;99.90
28530;DHT22;15737;49.760;6.632;2024-02-21T15:11:57;10.20;99.90
28530;DHT22;15737;49.760;6.632;2024-02-21T15:14:24;10.10;99.90
28530;DHT22;15737;49.760;6.632;2024-02-21T15:16:49;10.00;99.90
28530;DHT22;15737;49.760;6.632;2024-02-21T15:19:15;9.90;99.90
28530;DHT22;15737;49.760;6.632;2024-02-21T15:21:40;9.90;99.90
28530;DHT22;15737;49.760;6.632;2024-02-21T15:24:06;9.90;99.90
28530;DHT22;15737;49.760;6.632;2024-02-21T15:26:31;9.90;99.90
28530;DHT22;15737;49.760;6.632;2024-02-21T15:28:57;9.90;99.90
28530;DHT22;15737;49.760;6.632;2024-02-21T15:31:23;9.90;99.90
28530;DHT22;15737;49.760;6.632;2024-02-21T15:33:52;10.00;99.90
28530;DHT22;15737;49.760;6.632;2024-02-21T15:36:18;10.00;99.90
28530;DHT22;15737;49.760;6.632;2024-02-21T15:38:45;10.00;99.90
28530;DHT22;15737;49.760;6.632;2024-02-21T15:41:13;9.90;99.90
28530;DHT22;15737;49.760;6.632;2024-02-21T15:43:39;9.90;99.90
28530;DHT22;15737;49.760;6.632;2024-02-21T15:46:11;9.90;99.90
28530;DHT22;15737;49.760;6.632;2024-02-21T15:48:37;9.90;99.90
28530;DHT22;15737;49.760;6.632;2024-02-21T15:51:04;9.90;99.90
28530;DHT22;15737;49.760;6.632;2024-02-21T15:53:30;9.90;99.90
28530;DHT22;15737;49.760;6.632;2024-02-21T15:55:55;9.80;99.90
28530;DHT22;15737;49.760;6.632;2024-02-21T15:58:21;9.80;99.90